ΕΜΥ, Εθνική Μετεωρολογική Υπηρεσία - Δελτία Καιρού, Προγνώσεις

ΑΕΡΟΝΑΥΤΙΛΙΑ

GREEK AIRPORTS CODES

LGIO 160920Z 13003KT 9999 SCT090 28/15 Q1014=

EUROPEAN AIRPORTS CODES

LCLK 160930Z 14010KT 110V170 9999 FEW025 31/23 Q1009 NOSIG=